Time;durP1;ratioP1;P1;durP2;ratioP2;P2;SDS_P1;SDS_P2;PMS_P1;PMS_P2;Temp;Humidity;BMP_temperature;BMP_pressure;BME280_temperature;BME280_humidity;BME280_pressure;Samples;Min_cycle;Max_cycle;Signal;HPM_P1;HPM_P2
2022/01/25 00:27:06;;;;;;;;;;;;;;;;;;5095620;28;19987;-67
2022/01/25 00:32:10;;;;;;;;;;;;;;;;;;5095382;28;20359;-67
2022/01/25 00:34:36;;;;;;;;;;;;;;;;;;5095422;28;19908;-67
2022/01/25 00:37:02;;;;;;;;;;;;;;;;;;5095494;28;19939;-67
2022/01/25 00:39:28;;;;;;;;;;;;;;;;;;5094961;28;20006;-67
2022/01/25 00:41:54;;;;;;;;;;;;;;;;;;5095336;28;19934;-66
2022/01/25 00:44:20;;;;;;;;;;;;;;;;;;5095351;28;19908;-66
2022/01/25 00:46:46;;;;;;;;;;;;;;;;;;5094659;28;19920;-66
2022/01/25 00:49:20;;;;;;;;;;;;;;;;;;5095157;28;19916;-66
2022/01/25 00:51:59;;;;;;;;;;;;;;;;;;5095094;28;19991;-68
2022/01/25 00:54:33;;;;;;;;;;;;;;;;;;5094652;28;19908;-66
2022/01/25 00:56:59;;;;;;;;;;;;;;;;;;5094986;28;19908;-66
2022/01/25 00:59:25;;;;;;;;;;;;;;;;;;5094604;28;19912;-66
2022/01/25 01:01:51;;;;;;;;;;;;;;;;;;5095440;28;20406;-66
2022/01/25 01:04:17;;;;;;;;;;;;;;;;;;5094941;28;19942;-67
2022/01/25 01:06:45;;;;;;;;;;;;;;;;;;5076321;28;20390;-66
2022/01/25 01:09:11;;;;;;;;;;;;;;;;;;5094765;28;20019;-67
2022/01/25 01:11:59;;;;;;;;;;;;;;;;;;5076566;28;19962;-66
2022/01/25 01:35:42;;;;;;;;;;;;;;;;;;5093973;28;20049;-66
2022/01/25 01:41:22;;;;;;;;;;;;;;;;;;5076566;28;20261;-66
2022/01/25 01:43:53;;;;;;;;;;;;;;;;;;5076013;28;19908;-66
2022/01/25 01:48:52;;;;;;;;;;;;;;;;;;5093655;28;19924;-66
2022/01/25 01:51:26;;;;;;;;;;;;;;;;;;5094153;28;19915;-66
2022/01/25 01:53:52;;;;;;;;;;;;;;;;;;5094095;28;19908;-67
2022/01/25 01:56:17;;;;;;;;;;;;;;;;;;5093982;28;19908;-66
2022/01/25 01:58:43;;;;;;;;;;;;;;;;;;5094072;28;19915;-66
2022/01/25 02:01:09;;;;;;;;;;;;;;;;;;5094013;28;19908;-66
2022/01/25 02:03:35;;;;;;;;;;;;;;;;;;5093634;28;19916;-66
2022/01/25 02:06:01;;;;;;;;;;;;;;;;;;5093924;28;20257;-66
2022/01/25 02:08:27;;;;;;;;;;;;;;;;;;5093823;28;19916;-66
2022/01/25 02:10:53;;;;;;;;;;;;;;;;;;5093455;28;19962;-66
2022/01/25 02:13:19;;;;;;;;;;;;;;;;;;5093955;28;19908;-66
2022/01/25 02:15:47;;;;;;;;;;;;;;;;;;5093903;28;19908;-65
2022/01/25 02:23:33;;;;;;;;;;;;;;;;;;5093818;28;19961;-67
2022/01/25 02:25:59;;;;;;;;;;;;;;;;;;5093876;28;20306;-67
2022/01/25 02:28:25;;;;;;;;;;;;;;;;;;5075596;28;19970;-67
2022/01/25 02:30:51;;;;;;;;;;;;;;;;;;5093427;28;19918;-67
2022/01/25 02:33:17;;;;;;;;;;;;;;;;;;5093887;28;19912;-67
2022/01/25 02:35:43;;;;;;;;;;;;;;;;;;5075551;28;20011;-67
2022/01/25 02:38:09;;;;;;;;;;;;;;;;;;5097156;28;19954;-67
2022/01/25 02:40:35;;;;;;;;;;;;;;;;;;5098064;28;19938;-65
2022/01/25 02:43:01;;;;;;;;;;;;;;;;;;5097663;28;19919;-65
2022/01/25 02:45:33;;;;;;;;;;;;;;;;;;5078795;28;20367;-65
2022/01/25 02:51:03;;;;;;;;;;;;;;;;;;5015469;28;19909;-66
2022/01/25 02:53:29;;;;;;;;;;;;;;;;;;5014996;28;19917;-67
2022/01/25 02:55:55;;;;;;;;;;;;;;;;;;5036524;28;20287;-66
2022/01/25 02:58:21;;;;;;;;;;;;;;;;;;5097909;28;19912;-66
2022/01/25 03:00:47;;;;;;;;;;;;;;;;;;5078679;28;19909;-66
2022/01/25 03:03:13;;;;;;;;;;;;;;;;;;5097255;28;20375;-66
2022/01/25 03:05:39;;;;;;;;;;;;;;;;;;5097549;28;19908;-66
2022/01/25 03:08:07;;;;;;;;;;;;;;;;;;5096678;28;20363;-66
2022/01/25 03:10:33;;;;;;;;;;;;;;;;;;5097670;28;19908;-66
2022/01/25 03:12:59;;;;;;;;;;;;;;;;;;5096635;28;19908;-66
2022/01/25 03:15:41;;;;;;;;;;;;;;;;;;5097145;28;19919;-66
2022/01/25 03:18:14;;;;;;;;;;;;;;;;;;5097154;28;20253;-66
2022/01/25 03:20:58;;;;;;;;;;;;;;;;;;5096929;28;19908;-66
2022/01/25 03:23:24;;;;;;;;;;;;;;;;;;5097070;28;19961;-66
2022/01/25 03:25:50;;;;;;;;;;;;;;;;;;5078690;28;19912;-66
2022/01/25 03:28:16;;;;;;;;;;;;;;;;;;5096281;28;19960;-66
2022/01/25 03:30:42;;;;;;;;;;;;;;;;;;5097027;28;19915;-66
2022/01/25 03:33:08;;;;;;;;;;;;;;;;;;5096656;28;19908;-66
2022/01/25 03:35:34;;;;;;;;;;;;;;;;;;5078095;28;20284;-66
2022/01/25 03:38:00;;;;;;;;;;;;;;;;;;5096611;28;19920;-66
2022/01/25 03:40:26;;;;;;;;;;;;;;;;;;5096515;28;19931;-66
2022/01/25 03:42:54;;;;;;;;;;;;;;;;;;5077944;28;19908;-66
2022/01/25 03:45:22;;;;;;;;;;;;;;;;;;5096361;28;20315;-65
2022/01/25 03:49:48;;;;;;;;;;;;;;;;;;5096150;28;20262;-66
2022/01/25 03:50:34;;;;;;;;;;;;;;;;;;5094445;28;19999;-66
2022/01/25 03:53:00;;;;;;;;;;;;;;;;;;5096874;28;19955;-66
2022/01/25 03:55:26;;;;;;;;;;;;;;;;;;5095811;28;19930;-66
2022/01/25 03:57:52;;;;;;;;;;;;;;;;;;5096202;28;19908;-66
2022/01/25 04:00:18;;;;;;;;;;;;;;;;;;5096152;28;19912;-66
2022/01/25 04:02:54;;;;;;;;;;;;;;;;;;5095648;28;20257;-66
2022/01/25 04:05:33;;;;;;;;;;;;;;;;;;5096467;28;20005;-66
2022/01/25 04:07:59;;;;;;;;;;;;;;;;;;5095962;28;20377;-66
2022/01/25 04:10:25;;;;;;;;;;;;;;;;;;5095545;28;19934;-66
2022/01/25 04:12:51;;;;;;;;;;;;;;;;;;5077618;28;20372;-66
2022/01/25 04:15:17;;;;;;;;;;;;;;;;;;5095806;28;19908;-66
2022/01/25 04:17:48;;;;;;;;;;;;;;;;;;5095576;28;20321;-66
2022/01/25 04:20:19;;;;;;;;;;;;;;;;;;5077545;28;20241;-65
2022/01/25 04:25:30;;;;;;;;;;;;;;;;;;5095398;28;20003;-66
2022/01/25 04:27:56;;;;;;;;;;;;;;;;;;5095435;28;19970;-66
2022/01/25 04:30:22;;;;;;;;;;;;;;;;;;5095150;28;19937;-67
2022/01/25 04:32:57;;;;;;;;;;;;;;;;;;5095880;28;19908;-66
2022/01/25 04:49:02;;;;;;;;;;;;;;;;;;5095281;28;19922;-66
2022/01/25 04:52:18;;;;;;;;;;;;;;;;;;5095075;28;19915;-67
2022/01/25 05:05:41;;;;;;;;;;;;;;;;;;5012759;28;19909;-66
2022/01/25 05:08:31;;;;;;;;;;;;;;;;;;5013203;28;19917;-69
2022/01/25 05:11:22;;;;;;;;;;;;;;;;;;5074928;28;19992;-66
2022/01/25 05:13:59;;;;;;;;;;;;;;;;;;5076274;28;19999;-66
2022/01/25 05:19:03;;;;;;;;;;;;;;;;;;5094630;28;19961;-66
2022/01/25 05:24:13;;;;;;;;;;;;;;;;;;5094610;28;19914;-66
2022/01/25 05:26:39;;;;;;;;;;;;;;;;;;5094068;28;19987;-66
2022/01/25 05:29:06;;;;;;;;;;;;;;;;;;5094742;28;20353;-66
2022/01/25 05:31:32;;;;;;;;;;;;;;;;;;5094503;28;19912;-66
2022/01/25 05:33:58;;;;;;;;;;;;;;;;;;5093966;28;19915;-65
2022/01/25 05:36:23;;;;;;;;;;;;;;;;;;5094320;28;19908;-66
2022/01/25 05:38:49;;;;;;;;;;;;;;;;;;5094307;28;20368;-66
2022/01/25 05:41:16;;;;;;;;;;;;;;;;;;5093896;28;19908;-65
2022/01/25 05:46:42;;;;;;;;;;;;;;;;;;5094061;28;19927;-66
2022/01/25 05:49:08;;;;;;;;;;;;;;;;;;5093878;28;19959;-66
2022/01/25 05:51:34;;;;;;;;;;;;;;;;;;5094158;28;19915;-66
2022/01/25 05:54:00;;;;;;;;;;;;;;;;;;5094386;28;20392;-66
2022/01/25 05:56:26;;;;;;;;;;;;;;;;;;5093734;28;19953;-66
2022/01/25 05:58:52;;;;;;;;;;;;;;;;;;5076543;28;20360;-66
2022/01/25 06:01:18;;;;;;;;;;;;;;;;;;5075861;28;19930;-66
2022/01/25 06:03:45;;;;;;;;;;;;;;;;;;5093598;28;19908;-66
2022/01/25 06:06:11;;;;;;;;;;;;;;;;;;5093900;28;19912;-66
2022/01/25 06:08:37;;;;;;;;;;;;;;;;;;5093871;28;19916;-66
2022/01/25 06:11:03;;;;;;;;;;;;;;;;;;5093973;28;20263;-66
2022/01/25 06:13:29;;;;;;;;;;;;;;;;;;5093922;28;19908;-66
2022/01/25 06:15:55;;;;;;;;;;;;;;;;;;5093456;28;19908;-66
2022/01/25 06:18:21;;;;;;;;;;;;;;;;;;5093798;28;19956;-67
2022/01/25 06:20:47;;;;;;;;;;;;;;;;;;5094127;28;20002;-66
2022/01/25 06:23:13;;;;;;;;;;;;;;;;;;5093442;28;19908;-66
2022/01/25 06:25:41;;;;;;;;;;;;;;;;;;5093821;28;19909;-66
2022/01/25 06:28:07;;;;;;;;;;;;;;;;;;5093769;28;19920;-66
2022/01/25 06:30:33;;;;;;;;;;;;;;;;;;5093307;28;19909;-66
2022/01/25 06:32:59;;;;;;;;;;;;;;;;;;5094134;28;19908;-66
2022/01/25 06:35:28;;;;;;;;;;;;;;;;;;5093710;28;20075;-66
2022/01/25 06:37:54;;;;;;;;;;;;;;;;;;5093471;28;20006;-66
2022/01/25 06:40:21;;;;;;;;;;;;;;;;;;5093783;28;19912;-66
2022/01/25 06:42:47;;;;;;;;;;;;;;;;;;5093661;28;19908;-66
2022/01/25 06:45:16;;;;;;;;;;;;;;;;;;5093235;28;19908;-66
2022/01/25 06:47:42;;;;;;;;;;;;;;;;;;5093517;28;19920;-66
2022/01/25 06:50:08;;;;;;;;;;;;;;;;;;5094195;28;20269;-66
2022/01/25 06:52:37;;;;;;;;;;;;;;;;;;5093173;28;19915;-66
2022/01/25 06:55:03;;;;;;;;;;;;;;;;;;5093634;28;19908;-67
2022/01/25 06:57:29;;;;;;;;;;;;;;;;;;5093591;28;19915;-67
2022/01/25 06:59:55;;;;;;;;;;;;;;;;;;5093172;28;20461;-67
2022/01/25 07:02:21;;;;;;;;;;;;;;;;;;5094002;28;19912;-67
2022/01/25 07:04:47;;;;;;;;;;;;;;;;;;5093453;28;19909;-67
2022/01/25 07:07:13;;;;;;;;;;;;;;;;;;5092952;28;20488;-66
2022/01/25 07:09:39;;;;;;;;;;;;;;;;;;5093613;28;19924;-67
2022/01/25 07:12:05;;;;;;;;;;;;;;;;;;5093396;28;19961;-66
2022/01/25 07:14:31;;;;;;;;;;;;;;;;;;5093285;28;19912;-67
2022/01/25 07:16:57;;;;;;;;;;;;;;;;;;5075272;28;20006;-67
2022/01/25 07:19:24;;;;;;;;;;;;;;;;;;5092927;28;20045;-67
2022/01/25 07:21:50;;;;;;;;;;;;;;;;;;5093374;28;19915;-66
2022/01/25 07:24:17;;;;;;;;;;;;;;;;;;5095025;28;19908;-67
2022/01/25 07:26:43;;;;;;;;;;;;;;;;;;5096415;28;19915;-67
2022/01/25 07:29:09;;;;;;;;;;;;;;;;;;5096779;28;19916;-66
2022/01/25 07:31:35;;;;;;;;;;;;;;;;;;5096664;28;19995;-66
2022/01/25 07:34:01;;;;;;;;;;;;;;;;;;5096254;28;19916;-66
2022/01/25 07:36:27;;;;;;;;;;;;;;;;;;5096675;28;19953;-66
2022/01/25 07:38:53;;;;;;;;;;;;;;;;;;5078477;28;19908;-67
2022/01/25 07:41:20;;;;;;;;;;;;;;;;;;5096221;28;20364;-68
2022/01/25 07:43:46;;;;;;;;;;;;;;;;;;5096537;28;19915;-68
2022/01/25 07:46:15;;;;;;;;;;;;;;;;;;5096459;28;19951;-66
2022/01/25 07:48:41;;;;;;;;;;;;;;;;;;5095988;28;19920;-68
2022/01/25 07:51:07;;;;;;;;;;;;;;;;;;5096592;28;20314;-67
2022/01/25 07:53:33;;;;;;;;;;;;;;;;;;5096635;28;19908;-67
2022/01/25 07:55:59;;;;;;;;;;;;;;;;;;5095828;28;20276;-67
2022/01/25 07:58:25;;;;;;;;;;;;;;;;;;5096344;28;19918;-67
2022/01/25 08:00:51;;;;;;;;;;;;;;;;;;5096495;28;19916;-67
2022/01/25 08:03:17;;;;;;;;;;;;;;;;;;5095833;28;20399;-67
2022/01/25 08:05:45;;;;;;;;;;;;;;;;;;5078057;28;19945;-67
2022/01/25 08:08:11;;;;;;;;;;;;;;;;;;5096167;28;19922;-67
2022/01/25 08:10:37;;;;;;;;;;;;;;;;;;5096118;28;19999;-67
2022/01/25 08:13:03;;;;;;;;;;;;;;;;;;5095986;28;19914;-67
2022/01/25 08:15:29;;;;;;;;;;;;;;;;;;5095705;28;19955;-66
2022/01/25 08:17:55;;;;;;;;;;;;;;;;;;5095866;28;19908;-66
2022/01/25 08:20:21;;;;;;;;;;;;;;;;;;5095923;28;19919;-68
2022/01/25 08:22:47;;;;;;;;;;;;;;;;;;5095372;28;19943;-68
2022/01/25 08:25:13;;;;;;;;;;;;;;;;;;5095779;28;19908;-67
2022/01/25 08:27:39;;;;;;;;;;;;;;;;;;5095715;28;19947;-68
2022/01/25 08:30:05;;;;;;;;;;;;;;;;;;5095397;28;19970;-66
2022/01/25 08:32:31;;;;;;;;;;;;;;;;;;5096116;28;19916;-66
2022/01/25 08:34:58;;;;;;;;;;;;;;;;;;5095050;28;20433;-67
2022/01/25 08:37:24;;;;;;;;;;;;;;;;;;5095319;28;19953;-67
2022/01/25 08:39:50;;;;;;;;;;;;;;;;;;5095329;28;20002;-68
2022/01/25 08:42:16;;;;;;;;;;;;;;;;;;5077150;28;19908;-68
2022/01/25 08:44:42;;;;;;;;;;;;;;;;;;5076746;28;19916;-67
2022/01/25 08:47:08;;;;;;;;;;;;;;;;;;5095050;28;19920;-68
2022/01/25 08:49:34;;;;;;;;;;;;;;;;;;5095153;28;20463;-67
2022/01/25 08:52:00;;;;;;;;;;;;;;;;;;5092742;28;20267;-66
2022/01/25 08:54:26;;;;;;;;;;;;;;;;;;5093231;28;19961;-66
2022/01/25 08:56:52;;;;;;;;;;;;;;;;;;5095027;28;19961;-69
2022/01/25 08:59:18;;;;;;;;;;;;;;;;;;5094874;28;19908;-69
2022/01/25 09:01:44;;;;;;;;;;;;;;;;;;5094638;28;19908;-69
2022/01/25 09:04:10;;;;;;;;;;;;;;;;;;5094007;28;19909;-70
2022/01/25 09:06:36;;;;;;;;;;;;;;;;;;5094209;28;19912;-68
2022/01/25 09:09:02;;;;;;;;;;;;;;;;;;5094178;28;20288;-69
2022/01/25 09:11:28;;;;;;;;;;;;;;;;;;5094380;28;19908;-69
2022/01/25 09:13:54;;;;;;;;;;;;;;;;;;5094474;28;19931;-69
2022/01/25 09:16:20;;;;;;;;;;;;;;;;;;5094340;28;19915;-68
2022/01/25 09:18:46;;;;;;;;;;;;;;;;;;5094111;28;19912;-69
2022/01/25 09:21:12;;;;;;;;;;;;;;;;;;5094372;28;19997;-68
2022/01/25 09:23:38;;;;;;;;;;;;;;;;;;5094517;28;19908;-69
2022/01/25 09:26:04;;;;;;;;;;;;;;;;;;5094013;28;19908;-68
2022/01/25 09:28:30;;;;;;;;;;;;;;;;;;5094188;28;19928;-69
2022/01/25 09:30:56;;;;;;;;;;;;;;;;;;5076136;28;19908;-69
2022/01/25 09:33:22;;;;;;;;;;;;;;;;;;5093792;28;19909;-69
2022/01/25 09:35:48;;;;;;;;;;;;;;;;;;5094017;28;20265;-68
2022/01/25 09:38:14;;;;;;;;;;;;;;;;;;5094127;28;19915;-71
2022/01/25 09:40:40;;;;;;;;;;;;;;;;;;5092483;28;19947;-67
2022/01/25 09:43:07;;;;;;;;;;;;;;;;;;5088014;28;19912;-69
2022/01/25 09:45:33;;;;;;;;;;;;;;;;;;5093212;28;19953;-71
2022/01/25 09:47:59;;;;;;;;;;;;;;;;;;5092986;28;19963;-69
2022/01/25 09:50:26;;;;;;;;;;;;;;;;;;5093739;28;19920;-70
2022/01/25 09:52:52;;;;;;;;;;;;;;;;;;5093794;28;20065;-71
2022/01/25 09:55:18;;;;;;;;;;;;;;;;;;5093167;28;20387;-73
2022/01/25 09:57:44;;;;;;;;;;;;;;;;;;5075501;28;19915;-70
2022/01/25 10:00:10;;;;;;;;;;;;;;;;;;5075717;28;19934;-70
2022/01/25 10:02:37;;;;;;;;;;;;;;;;;;5093395;28;19918;-70
2022/01/25 10:05:03;;;;;;;;;;;;;;;;;;5093868;28;19908;-71
2022/01/25 10:07:29;;;;;;;;;;;;;;;;;;5093753;28;20260;-69
2022/01/25 10:09:55;;;;;;;;;;;;;;;;;;5093407;28;20265;-71
2022/01/25 10:12:21;;;;;;;;;;;;;;;;;;5093178;28;19919;-70
2022/01/25 10:14:47;;;;;;;;;;;;;;;;;;5093034;28;19908;-69
2022/01/25 10:17:13;;;;;;;;;;;;;;;;;;5093690;28;19909;-73
2022/01/25 10:19:41;;;;;;;;;;;;;;;;;;5093860;28;19908;-73
2022/01/25 10:22:07;;;;;;;;;;;;;;;;;;5093329;28;20260;-74
2022/01/25 10:24:33;;;;;;;;;;;;;;;;;;5093605;28;19915;-71
2022/01/25 10:26:59;;;;;;;;;;;;;;;;;;5075607;28;19908;-73
2022/01/25 10:29:25;;;;;;;;;;;;;;;;;;5093161;28;19963;-72
2022/01/25 10:31:52;;;;;;;;;;;;;;;;;;5093502;28;19916;-69
2022/01/25 10:34:21;;;;;;;;;;;;;;;;;;5093284;28;19908;-70
2022/01/25 10:36:48;;;;;;;;;;;;;;;;;;5093304;28;19908;-72
2022/01/25 10:39:14;;;;;;;;;;;;;;;;;;5093556;28;19912;-69
2022/01/25 10:41:40;;;;;;;;;;;;;;;;;;5093585;28;20345;-70
2022/01/25 10:44:06;;;;;;;;;;;;;;;;;;5093150;28;19977;-70
2022/01/25 10:46:32;;;;;;;;;;;;;;;;;;5092753;28;20284;-70
2022/01/25 10:48:58;;;;;;;;;;;;;;;;;;5075269;28;19922;-69
2022/01/25 10:51:24;;;;;;;;;;;;;;;;;;5093057;28;19908;-70
2022/01/25 10:53:50;;;;;;;;;;;;;;;;;;5093288;28;19909;-71
2022/01/25 10:56:16;;;;;;;;;;;;;;;;;;5074894;28;19908;-67
2022/01/25 10:58:42;;;;;;;;;;;;;;;;;;5095433;28;20376;-71
2022/01/25 11:01:10;;;;;;;;;;;;;;;;;;5097244;28;19992;-70
2022/01/25 11:03:36;;;;;;;;;;;;;;;;;;5078993;28;19931;-73
2022/01/25 11:06:02;;;;;;;;;;;;;;;;;;5096827;28;20378;-74
2022/01/25 11:08:28;;;;;;;;;;;;;;;;;;5096858;28;19923;-73
2022/01/25 11:10:58;;;;;;;;;;;;;;;;;;5097127;28;19915;-71
2022/01/25 11:15:53;;;;;;;;;;;;;;;;;;5093696;28;19954;-72
2022/01/25 11:18:20;;;;;;;;;;;;;;;;;;5087532;28;19967;-70
2022/01/25 11:20:46;;;;;;;;;;;;;;;;;;5090275;28;19946;-72
2022/01/25 11:23:12;;;;;;;;;;;;;;;;;;5075663;28;20002;-70
2022/01/25 11:25:38;;;;;;;;;;;;;;;;;;5095260;28;19970;-72
2022/01/25 11:28:04;;;;;;;;;;;;;;;;;;5093893;28;20364;-70
2022/01/25 11:30:30;;;;;;;;;;;;;;;;;;5092597;28;20006;-71
2022/01/25 11:32:56;;;;;;;;;;;;;;;;;;5089274;28;19912;-71
2022/01/25 11:35:23;;;;;;;;;;;;;;;;;;5091618;28;19947;-71
2022/01/25 11:37:49;;;;;;;;;;;;;;;;;;5077841;28;19912;-71
2022/01/25 11:40:15;;;;;;;;;;;;;;;;;;5095118;28;19953;-73
2022/01/25 11:42:41;;;;;;;;;;;;;;;;;;5095411;28;19912;-73
2022/01/25 11:45:07;;;;;;;;;;;;;;;;;;5094974;28;20291;-69
2022/01/25 11:47:33;;;;;;;;;;;;;;;;;;5090143;28;20291;-69
2022/01/25 11:49:59;;;;;;;;;;;;;;;;;;5096224;28;19969;-69
2022/01/25 11:52:25;;;;;;;;;;;;;;;;;;5077816;28;19912;-70
2022/01/25 11:54:51;;;;;;;;;;;;;;;;;;5095730;28;19930;-70
2022/01/25 11:57:17;;;;;;;;;;;;;;;;;;5077993;28;19908;-68
2022/01/25 11:59:43;;;;;;;;;;;;;;;;;;5096199;28;20295;-68
2022/01/25 12:02:10;;;;;;;;;;;;;;;;;;5095610;28;19915;-69
2022/01/25 12:04:36;;;;;;;;;;;;;;;;;;5095785;28;20003;-69
2022/01/25 12:07:12;;;;;;;;;;;;;;;;;;5095778;28;19915;-68
2022/01/25 12:09:44;;;;;;;;;;;;;;;;;;5094814;28;19962;-69
2022/01/25 12:12:10;;;;;;;;;;;;;;;;;;5096072;28;19908;-67
2022/01/25 12:14:38;;;;;;;;;;;;;;;;;;5095203;28;20444;-68
2022/01/25 12:17:04;;;;;;;;;;;;;;;;;;5095842;28;19947;-69
2022/01/25 12:19:30;;;;;;;;;;;;;;;;;;5095612;28;19933;-68
2022/01/25 12:21:57;;;;;;;;;;;;;;;;;;5095311;28;19969;-68
2022/01/25 12:24:26;;;;;;;;;;;;;;;;;;5095408;28;19962;-69
2022/01/25 12:26:54;;;;;;;;;;;;;;;;;;5095480;28;19908;-69
2022/01/25 12:29:20;;;;;;;;;;;;;;;;;;5095199;28;19920;-69
2022/01/25 12:31:46;;;;;;;;;;;;;;;;;;5095444;28;20435;-67
2022/01/25 12:34:12;;;;;;;;;;;;;;;;;;5095432;28;19908;-67
2022/01/25 12:36:40;;;;;;;;;;;;;;;;;;5094764;28;19912;-68
2022/01/25 12:39:06;;;;;;;;;;;;;;;;;;5077525;28;20292;-68
2022/01/25 12:41:32;;;;;;;;;;;;;;;;;;5095415;28;19908;-67
2022/01/25 12:43:58;;;;;;;;;;;;;;;;;;5076654;28;19915;-70
2022/01/25 12:46:24;;;;;;;;;;;;;;;;;;5094888;28;20296;-69
2022/01/25 12:48:50;;;;;;;;;;;;;;;;;;5095171;28;19916;-68
2022/01/25 12:51:16;;;;;;;;;;;;;;;;;;5094964;28;20420;-68
2022/01/25 12:53:42;;;;;;;;;;;;;;;;;;5076523;28;19908;-67
2022/01/25 12:56:10;;;;;;;;;;;;;;;;;;5094846;28;20003;-67
2022/01/25 12:58:36;;;;;;;;;;;;;;;;;;5093996;28;19977;-68
2022/01/25 13:01:02;;;;;;;;;;;;;;;;;;5095117;28;20360;-68
2022/01/25 13:03:29;;;;;;;;;;;;;;;;;;5095039;28;19961;-73
2022/01/25 13:05:55;;;;;;;;;;;;;;;;;;5095299;28;20356;-70
2022/01/25 13:08:21;;;;;;;;;;;;;;;;;;5094904;28;19916;-68
2022/01/25 13:10:48;;;;;;;;;;;;;;;;;;5076421;28;19964;-68
2022/01/25 13:13:21;;;;;;;;;;;;;;;;;;5094787;28;20357;-68
2022/01/25 13:18:13;;;;;;;;;;;;;;;;;;5094362;28;19908;-69
2022/01/25 13:20:41;;;;;;;;;;;;;;;;;;5094762;28;20399;-69
2022/01/25 13:23:07;;;;;;;;;;;;;;;;;;5094683;28;19915;-67
2022/01/25 13:25:52;;;;;;;;;;;;;;;;;;5076054;28;19916;-68
2022/01/25 13:28:34;;;;;;;;;;;;;;;;;;5094943;28;19960;-67
2022/01/25 13:31:00;;;;;;;;;;;;;;;;;;5095063;28;20338;-68
2022/01/25 13:33:28;;;;;;;;;;;;;;;;;;5075944;28;20369;-69
2022/01/25 13:35:56;;;;;;;;;;;;;;;;;;5094521;28;19989;-68
2022/01/25 13:38:22;;;;;;;;;;;;;;;;;;5094464;28;20320;-68
2022/01/25 13:40:51;;;;;;;;;;;;;;;;;;5094054;28;19947;-68
2022/01/25 13:45:49;;;;;;;;;;;;;;;;;;5093719;28;19922;-67
2022/01/25 13:48:15;;;;;;;;;;;;;;;;;;5094203;28;20010;-68
2022/01/25 13:50:41;;;;;;;;;;;;;;;;;;5094321;28;19908;-68
2022/01/25 13:53:11;;;;;;;;;;;;;;;;;;5093041;28;20128;-68
2022/01/25 13:55:37;;;;;;;;;;;;;;;;;;5094166;28;19909;-69
2022/01/25 13:58:03;;;;;;;;;;;;;;;;;;5094076;28;20259;-69
2022/01/25 14:00:29;;;;;;;;;;;;;;;;;;5093863;28;19912;-68
2022/01/25 14:02:55;;;;;;;;;;;;;;;;;;5093991;28;19994;-69
2022/01/25 14:05:21;;;;;;;;;;;;;;;;;;5094068;28;19955;-68
2022/01/25 14:07:47;;;;;;;;;;;;;;;;;;5093932;28;20322;-68
2022/01/25 14:10:20;;;;;;;;;;;;;;;;;;5093969;28;20007;-68
2022/01/25 14:23:45;;;;;;;;;;;;;;;;;;5093926;28;19915;-68
2022/01/25 14:26:11;;;;;;;;;;;;;;;;;;5093791;28;19916;-68
2022/01/25 14:28:51;;;;;;;;;;;;;;;;;;5093634;28;19916;-68
2022/01/25 14:31:17;;;;;;;;;;;;;;;;;;5093922;28;19908;-68
2022/01/25 14:33:43;;;;;;;;;;;;;;;;;;5097095;28;19975;-67
2022/01/25 14:36:09;;;;;;;;;;;;;;;;;;5097810;28;19915;-67
2022/01/25 14:38:35;;;;;;;;;;;;;;;;;;5097877;28;19912;-67
2022/01/25 14:41:04;;;;;;;;;;;;;;;;;;5079721;28;19954;-68
2022/01/25 14:43:30;;;;;;;;;;;;;;;;;;5097633;28;19995;-67
2022/01/25 14:45:56;;;;;;;;;;;;;;;;;;5097457;28;19924;-66
2022/01/25 14:48:22;;;;;;;;;;;;;;;;;;5097631;28;19912;-67
2022/01/25 14:50:48;;;;;;;;;;;;;;;;;;5097174;28;20391;-67
2022/01/25 14:53:14;;;;;;;;;;;;;;;;;;5097712;28;19909;-68
2022/01/25 14:55:40;;;;;;;;;;;;;;;;;;5097422;28;19912;-68
2022/01/25 15:00:38;;;;;;;;;;;;;;;;;;5097810;28;20394;-67
2022/01/25 15:03:04;;;;;;;;;;;;;;;;;;5097007;28;19908;-68
2022/01/25 15:05:30;;;;;;;;;;;;;;;;;;5097455;28;19965;-68
2022/01/25 15:07:56;;;;;;;;;;;;;;;;;;5097253;28;19908;-68
2022/01/25 15:10:22;;;;;;;;;;;;;;;;;;5078588;28;19999;-68
2022/01/25 15:12:50;;;;;;;;;;;;;;;;;;5079081;28;19908;-68
2022/01/25 15:15:26;;;;;;;;;;;;;;;;;;5097114;28;19908;-68
2022/01/25 15:17:52;;;;;;;;;;;;;;;;;;5096769;28;19908;-68
2022/01/25 15:20:18;;;;;;;;;;;;;;;;;;5097206;28;19916;-68
2022/01/25 15:22:45;;;;;;;;;;;;;;;;;;5078805;28;19915;-68
2022/01/25 15:25:13;;;;;;;;;;;;;;;;;;5096593;28;19916;-68
2022/01/25 15:27:39;;;;;;;;;;;;;;;;;;5097491;28;19908;-68
2022/01/25 15:30:05;;;;;;;;;;;;;;;;;;5096810;28;19987;-67
2022/01/25 15:32:31;;;;;;;;;;;;;;;;;;5096337;28;20236;-68
2022/01/25 15:34:57;;;;;;;;;;;;;;;;;;5096783;28;19908;-68
2022/01/25 15:37:23;;;;;;;;;;;;;;;;;;5096699;28;19912;-68
2022/01/25 15:39:49;;;;;;;;;;;;;;;;;;5096178;28;20416;-68
2022/01/25 15:42:18;;;;;;;;;;;;;;;;;;5096510;28;19944;-68
2022/01/25 15:44:46;;;;;;;;;;;;;;;;;;5095338;28;19909;-67
2022/01/25 15:47:12;;;;;;;;;;;;;;;;;;5095942;28;19920;-67
2022/01/25 15:49:38;;;;;;;;;;;;;;;;;;5096297;28;19916;-67
2022/01/25 15:52:04;;;;;;;;;;;;;;;;;;5078273;28;19909;-67
2022/01/25 15:54:30;;;;;;;117.65;93.85;;;;;;;;;;5095278;28;20920;-68
2022/01/25 15:56:56;;;;;;;448.05;350.58;;;;;;;;;;5095862;28;20107;-67
2022/01/25 15:59:23;;;;;;;552.42;446.23;;;;;;;;;;5095451;28;20028;-68
2022/01/25 16:01:52;;;;;;;27.60;14.57;;;;;;;;;;5095789;28;20028;-67
2022/01/25 16:04:19;;;;;;;35.53;21.63;;;;;;;;;;5095732;28;20350;-67
2022/01/25 16:06:45;;;;;;;25.42;15.10;;;;;;;;;;5095431;28;20046;-67
2022/01/25 16:09:11;;;;;;;37.97;19.65;;;;;;;;;;5095526;28;20036;-67
2022/01/25 16:11:38;;;;;;;32.50;16.77;;;;;;;;;;5095787;28;20100;-67
2022/01/25 16:14:04;;;;;;;31.88;17.33;;;;;;;;;;5095120;28;20028;-67
2022/01/25 16:16:30;;;;;;;31.15;18.40;;;;;;;;;;5077257;28;20020;-68
2022/01/25 16:18:56;;;;;;;26.23;15.77;;;;;;;;;;5077623;28;20357;-66
2022/01/25 16:21:23;;;;;;;34.33;16.02;;;;;;;;;;5094999;28;20428;-67
2022/01/25 16:23:49;;;;;;;98.63;86.32;;;;;;;;;;5077238;28;20024;-67
2022/01/25 16:26:17;;;;;;;31.50;13.93;;;;;;;;;;5095445;28;20082;-67
2022/01/25 16:28:48;;;;;;;382.88;342.20;;;;;;;;;;5094675;28;20470;-67
2022/01/25 16:31:24;;;;;;;34.05;14.80;;;;;;;;;;5095534;28;20024;-67
2022/01/25 16:33:51;;;;;;;38.00;18.30;;;;;;;;;;5095375;28;20023;-67
2022/01/25 16:36:19;;;;;;;36.72;19.77;;;;;;;;;;5094667;28;20024;-67
2022/01/25 16:38:46;;;;;;;29.00;15.30;;;;;;;;;;5094989;28;20031;-67
2022/01/25 16:41:12;;;;;;;29.92;15.70;;;;;;;;;;5095033;28;20016;-67
2022/01/25 16:43:39;;;;;;;32.53;15.75;;;;;;;;;;5094589;28;20031;-68
2022/01/25 16:46:06;;;;;;;26.38;14.98;;;;;;;;;;5094784;28;20043;-67
2022/01/25 16:48:32;;;;;;;37.28;18.60;;;;;;;;;;5094368;28;20024;-67
2022/01/25 16:50:59;;;;;;;29.70;15.02;;;;;;;;;;5094786;28;20035;-67
2022/01/25 16:53:25;;;;;;;30.20;14.10;;;;;;;;;;5094792;28;20077;-68
2022/01/25 16:55:51;;;;;;;23.05;13.13;;;;;;;;;;5094219;28;20032;-68
2022/01/25 16:58:18;;;;;;;24.95;12.30;;;;;;;;;;5094706;28;20078;-68
2022/01/25 17:00:44;;;;;;;28.83;14.95;;;;;;;;;;5094741;28;20450;-67
2022/01/25 17:03:12;;;;;;;31.10;19.83;;;;;;;;;;5094106;28;20043;-67
2022/01/25 17:05:38;;;;;;;22.30;12.38;;;;;;;;;;5094612;28;20065;-67
2022/01/25 17:08:05;;;;;;;98.45;90.50;;;;;;;;;;5094370;28;20066;-68
2022/01/25 17:10:31;;;;;;;182.05;168.05;;;;;;;;;;5094041;28;20395;-67
2022/01/25 17:12:58;;;;;;;339.98;304.88;;;;;;;;;;5094368;28;20460;-67
2022/01/25 17:15:24;;;;;;;29.27;11.73;;;;;;;;;;5094323;28;20089;-67
2022/01/25 17:17:52;;;;;;;25.70;13.18;;;;;;;;;;5094029;28;20517;-67
2022/01/25 17:20:19;;;;;;;29.42;15.15;;;;;;;;;;5094270;28;20016;-68
2022/01/25 17:22:46;;;;;;;27.15;13.70;;;;;;;;;;5094311;28;20024;-67
2022/01/25 17:25:12;;;;;;;22.38;12.15;;;;;;;;;;5093782;28;20080;-66
2022/01/25 17:27:38;;;;;;;26.45;12.05;;;;;;;;;;5094163;28;20051;-66
2022/01/25 17:30:06;;;;;;;35.67;30.67;;;;;;;;;;5093945;28;20495;-67
2022/01/25 17:32:33;;;;;;;24.80;11.57;;;;;;;;;;5093592;28;20028;-67
2022/01/25 17:34:59;;;;;;;52.13;47.90;;;;;;;;;;5094013;28;20103;-67
2022/01/25 17:37:25;;;;;;;386.63;345.35;;;;;;;;;;5094027;28;20050;-67
2022/01/25 17:39:51;;;;;;;22.33;12.25;;;;;;;;;;5093573;28;20020;-67
2022/01/25 17:42:18;;;;;;;36.50;18.45;;;;;;;;;;5093907;28;20031;-67
2022/01/25 17:44:44;;;;;;;29.90;13.98;;;;;;;;;;5094087;28;20104;-67
2022/01/25 17:47:12;;;;;;;31.90;17.20;;;;;;;;;;5093258;28;20115;-68
2022/01/25 17:49:39;;;;;;;38.80;22.15;;;;;;;;;;5093715;28;20028;-67
2022/01/25 17:52:05;;;;;;;53.67;30.45;;;;;;;;;;5075245;28;20107;-67
2022/01/25 17:54:32;;;;;;;46.15;27.70;;;;;;;;;;5093689;28;20101;-67
2022/01/25 17:56:58;;;;;;;41.50;24.38;;;;;;;;;;5093598;28;20030;-67
2022/01/25 17:59:24;;;;;;;44.47;22.25;;;;;;;;;;5093228;28;20069;-67
2022/01/25 18:01:54;;;;;;;47.20;24.75;;;;;;;;;;5093764;28;20099;-68
2022/01/25 18:04:20;;;;;;;47.40;22.23;;;;;;;;;;5094159;28;20020;-68
2022/01/25 18:06:46;;;;;;;45.67;23.58;;;;;;;;;;5074708;28;20024;-67
2022/01/25 18:09:13;;;;;;;85.35;70.15;;;;;;;;;;5093319;28;20040;-67
2022/01/25 18:11:41;;;;;;;110.25;77.68;;;;;;;;;;5093502;28;20488;-67
2022/01/25 18:14:08;;;;;;;41.92;22.02;;;;;;;;;;5093354;28;20120;-67
2022/01/25 18:16:34;;;;;;;150.60;132.32;;;;;;;;;;5093357;28;20027;-67
2022/01/25 18:19:01;;;;;;;48.75;24.67;;;;;;;;;;5093606;28;20027;-67